createdAt,value
2022-08-01T00:03:44.515Z,1.23
2022-08-01T00:06:20.456Z,1.20
2022-08-01T00:17:50.398Z,1.50
2022-08-01T00:21:30.728Z,1.45
2022-08-01T00:29:05.188Z,1.40
2022-08-01T00:54:10.823Z,1.40
2022-08-01T01:01:20.504Z,1.73
2022-08-01T01:04:12.673Z,1.20
2022-08-01T01:07:58.790Z,1.55
2022-08-01T01:11:06.695Z,1.40
2022-08-01T01:15:09.773Z,1.63
2022-08-01T01:19:07.580Z,1.45
2022-08-01T01:22:35.287Z,1.42
2022-08-01T01:25:42.071Z,1.50
2022-08-01T01:29:20.220Z,1.70
2022-08-01T01:33:11.135Z,1.30
2022-08-01T01:40:19.306Z,1.90
2022-08-01T01:47:26.151Z,1.63
2022-08-01T01:54:30.585Z,1.50
2022-08-01T01:57:39.647Z,1.60
2022-08-01T02:01:15.359Z,1.60
2022-08-01T02:05:20.091Z,1.60
2022-08-01T02:09:07.153Z,1.50
2022-08-01T02:15:28.410Z,2.05
2022-08-01T02:19:17.074Z,2.10
2022-08-01T02:22:59.461Z,2.30
2022-08-01T02:26:17.270Z,2.30
2022-08-01T02:29:39.491Z,2.40
2022-08-01T02:36:50.542Z,2.60
2022-08-01T02:46:58.468Z,2.53
2022-08-01T02:50:07.463Z,2.10
2022-08-01T02:58:00.885Z,2.00
2022-08-01T03:04:41.777Z,2.30
2022-08-01T03:17:08.782Z,2.20
2022-08-01T03:20:37.148Z,2.25
2022-08-01T03:28:02.949Z,2.17
2022-08-01T03:31:23.874Z,2.20
2022-08-01T03:34:27.093Z,2.15
2022-08-01T03:38:20.282Z,2.33
2022-08-01T03:50:28.483Z,2.00
2022-08-01T03:58:16.701Z,2.50
2022-08-01T04:04:56.701Z,2.40
2022-08-01T04:16:50.317Z,2.58
2022-08-01T04:43:23.260Z,3.15
2022-08-01T04:46:41.681Z,2.90
2022-08-01T04:53:40.628Z,2.88
2022-08-01T04:57:32.525Z,2.97
2022-08-01T05:00:41.934Z,2.95
2022-08-01T05:12:20.263Z,3.30
2022-08-01T07:04:00.780Z,7.35
2022-08-01T07:25:52.704Z,6.30
2022-08-01T07:28:20.821Z,6.10
2022-08-01T07:30:48.578Z,5.88
2022-08-01T07:33:16.682Z,6.13
2022-08-01T07:35:44.551Z,5.68
2022-08-01T07:38:12.964Z,5.45
2022-08-01T07:40:42.379Z,5.22
2022-08-01T07:43:38.906Z,5.35
2022-08-01T07:57:08.759Z,4.80
2022-08-01T08:08:03.809Z,3.67
2022-08-01T08:10:55.740Z,3.47
2022-08-01T08:13:24.374Z,3.67
2022-08-01T08:15:55.049Z,3.20
2022-08-01T08:18:23.320Z,3.25
2022-08-01T09:47:40.958Z,5.38
2022-08-01T09:50:11.812Z,5.00
2022-08-01T09:52:41.152Z,4.63
2022-08-01T09:55:10.129Z,3.88
2022-08-01T10:17:04.925Z,3.05
2022-08-01T10:50:58.442Z,2.50
2022-08-01T10:53:31.748Z,2.58
2022-08-01T10:56:13.047Z,2.88
2022-08-01T10:58:45.825Z,2.97
2022-08-01T11:01:26.249Z,2.97
2022-08-01T11:04:11.422Z,2.47
2022-08-01T11:14:12.276Z,2.38
2022-08-01T11:16:41.891Z,2.40
2022-08-01T11:19:11.688Z,2.40
2022-08-01T11:22:05.013Z,2.63
2022-08-01T11:24:57.793Z,2.65
2022-08-01T11:27:29.314Z,2.80
2022-08-01T11:30:31.154Z,2.58
2022-08-01T11:33:10.985Z,2.63
2022-08-01T11:36:00.756Z,2.63
2022-08-01T11:38:31.160Z,2.55
2022-08-01T11:41:15.002Z,2.53
2022-08-01T11:43:57.510Z,2.65
2022-08-01T11:46:55.292Z,2.65
2022-08-01T11:49:50.072Z,2.90
2022-08-01T12:25:26.182Z,2.38
2022-08-01T12:27:56.498Z,2.20
2022-08-01T12:30:25.934Z,2.50
2022-08-01T12:32:56.875Z,2.40
2022-08-01T12:35:27.293Z,2.50
2022-08-01T12:37:57.831Z,2.53
2022-08-01T13:32:35.275Z,2.20
2022-08-01T16:37:35.467Z,0.90
2022-08-01T17:29:43.582Z,1.55
2022-08-01T17:32:13.088Z,1.50
2022-08-01T17:34:41.018Z,1.40
2022-08-01T17:37:09.994Z,1.30
2022-08-01T17:39:39.324Z,1.25
2022-08-01T18:09:32.895Z,1.77
2022-08-01T18:21:38.567Z,1.65
2022-08-01T18:24:09.457Z,1.70
2022-08-01T18:26:38.936Z,1.40
2022-08-01T18:29:07.545Z,1.60
2022-08-01T18:31:35.603Z,1.70
2022-08-01T18:34:03.749Z,1.48
2022-08-01T18:36:34.305Z,1.70
2022-08-01T18:39:05.561Z,1.55
2022-08-01T18:41:34.341Z,1.60
2022-08-01T18:44:07.922Z,1.77
2022-08-01T18:46:37.355Z,1.80
2022-08-01T18:49:06.416Z,1.63
2022-08-01T18:51:34.234Z,1.80
2022-08-01T18:54:02.326Z,1.90
2022-08-01T18:56:30.216Z,1.80
2022-08-01T19:11:33.145Z,1.65
2022-08-01T19:27:51.034Z,1.90
2022-08-01T19:30:20.191Z,2.13
2022-08-01T20:01:47.521Z,1.92
2022-08-01T20:04:16.870Z,1.98
2022-08-01T20:06:44.802Z,2.33
2022-08-01T20:09:13.895Z,2.17
2022-08-01T20:11:44.772Z,2.30
2022-08-01T20:14:14.835Z,2.38
2022-08-01T20:16:43.532Z,2.28
2022-08-01T20:19:13.227Z,2.50
2022-08-01T20:21:43.927Z,2.40
2022-08-01T20:34:43.065Z,2.58
2022-08-01T20:38:24.419Z,2.45
2022-08-01T20:45:54.415Z,2.30
2022-08-01T20:53:23.354Z,2.67
2022-08-01T21:01:00.228Z,2.90
2022-08-01T21:08:57.769Z,2.63
2022-08-01T21:12:07.646Z,2.65
2022-08-01T21:36:06.784Z,2.80
2022-08-01T21:39:56.909Z,3.00
2022-08-01T21:44:03.655Z,2.92
2022-08-01T21:47:03.791Z,2.83
2022-08-01T21:49:51.245Z,3.30
2022-08-01T21:53:11.547Z,2.90
2022-08-01T22:22:51.940Z,2.35
2022-08-01T22:25:59.045Z,3.00
2022-08-01T22:33:23.357Z,2.85
2022-08-01T22:37:57.486Z,3.05
2022-08-01T22:42:34.206Z,3.00
2022-08-01T22:46:27.855Z,2.88
2022-08-01T22:50:15.846Z,3.00
2022-08-01T23:20:56.689Z,2.88
2022-08-01T23:23:31.374Z,2.83
2022-08-01T23:26:02.159Z,3.35
2022-08-01T23:28:30.615Z,3.40
2022-08-01T23:31:00.653Z,3.08
2022-08-01T23:33:28.655Z,3.38
2022-08-01T23:35:58.494Z,3.40
2022-08-01T23:38:26.581Z,3.45
2022-08-01T23:40:55.539Z,3.30
2022-08-01T23:43:24.320Z,3.30
2022-08-01T23:46:04.246Z,3.30
2022-08-01T23:48:34.450Z,3.63
2022-08-01T23:51:05.090Z,3.00
2022-08-01T23:53:38.649Z,3.53
2022-08-01T23:56:08.303Z,3.78
2022-08-01T23:58:36.424Z,3.15
